An Run Da 2 — BHNX — position and weather

sailwx.info

Track history (hours):
 
Tides and Currents Weather Stations Pressure Air Temp Water Temp Dewpoint Dewpoint Depression Visibility Wind Speed Wind Dir Waves Ship Positions

An Run Da 2

Last reported at 2016-Dec-06 23:28 UTC. Time now 2016-Dec-08 14:28 UTC.
Position N 36°38' E 122°43'.

Length 147 m; draft 8.4 m.

MMSI: 413360230.

Date/timePositionNaut miles runAvg speedWind from/ knotsBaromVisibWave heightAir tempDewpointWater temp
2016-Dec-06 23:28N 36°38' E 122°43'910.0
2016-Dec-06 22:33N 36°47' E 122°45'1110.6
2016-Dec-06 21:33N 36°58' E 122°46'1111.1
2016-Dec-06 20:33N 37°09' E 122°46'2110.6
2016-Dec-06 18:33N 37°30' E 122°43'10 9.4
2016-Dec-06 17:30N 37°34' E 122°32'27 9.3
2016-Dec-06 14:33N 37°43' E 121°59'10 9.8
2016-Dec-06 13:33N 37°46' E 121°47'1010.0
2016-Dec-06 12:33N 37°49' E 121°35'1010.1
2016-Dec-06 11:33N 37°53' E 121°23'153 9.6
2016-Dec-05 19:34N 38°28' E 118°14'19 2.1
2016-Dec-05 10:30N 38°19' E 117°52'0 0.0
2016-Dec-05 06:25N 38°19' E 117°52'2 2.1
2016-Dec-05 05:31N 38°20' E 117°55'1110.1
2016-Dec-05 04:26N 38°25' E 118°07'1 0.7
2016-Dec-05 03:08N 38°25' E 118°08'0 0.0
2016-Dec-05 02:04N 38°25' E 118°08'0 0.1
2016-Dec-05 01:05N 38°25' E 118°08'0 0.0
2016-Dec-04 15:28N 38°24' E 118°08'8 8.4
2016-Dec-04 14:32N 38°26' E 118°18'14610.8
2016-Dec-04 01:04N 37°54' E 121°19'611.2
2016-Dec-04 00:33N 37°53' E 121°26'1211.5
2016-Dec-03 23:33N 37°50' E 121°41'1211.7
2016-Dec-03 22:33N 37°47' E 121°55'67 9.1
2016-Dec-03 15:13N 36°59' E 122°52'811.8
2016-Dec-03 14:33N 36°51' E 122°53'339 9.7
2016-Dec-02 03:31N 31°17' E 121°44'7 6.7
2016-Dec-02 02:29N 31°22' E 121°39'0 0.1
2016-Dec-02 01:32N 31°22' E 121°39'0 0.0
2016-Dec-02 00:31N 31°22' E 121°39'6 6.4
2016-Dec-01 23:33N 31°24' E 121°32'5 5.1
2016-Dec-01 22:33N 31°19' E 121°34'6 5.9
2016-Dec-01 21:33N 31°14' E 121°30'6 5.9
2016-Dec-01 20:33N 31°08' E 121°27'2 0.1
2016-Nov-30 22:29N 31°06' E 121°28'3 3.4
2016-Nov-30 21:32N 31°09' E 121°27'4 3.6
2016-Nov-30 20:32N 31°12' E 121°30'3 3.3
2016-Nov-30 19:34N 31°15' E 121°32'5 5.1
2016-Nov-30 18:33N 31°20' E 121°33'4 4.2
2016-Nov-30 17:32N 31°24' E 121°31'6 6.2
2016-Nov-30 16:33N 31°22' E 121°38'10 8.6
2016-Nov-30 15:24N 31°17' E 121°49'322 7.0
2016-Nov-28 17:29N 36°37' E 122°43'1010.5
2016-Nov-28 16:32N 36°46' E 122°45'1111.3
2016-Nov-28 15:33N 36°57' E 122°46'61 8.6
2016-Nov-28 08:33N 37°44' E 121°57'1010.3
2016-Nov-28 07:33N 37°47' E 121°45'1010.4
2016-Nov-28 06:33N 37°50' E 121°32'1010.4
2016-Nov-28 05:33N 37°53' E 121°19'158 9.3
2016-Nov-27 12:32N 38°24' E 118°02'9 2.1
2016-Nov-27 08:08N 38°20' E 117°52'0 0.0
2016-Nov-27 07:24N 38°20' E 117°52'0 0.0
2016-Nov-27 05:10N 38°20' E 117°52'0 0.0
2016-Nov-27 02:28N 38°20' E 117°52'0 0.0
2016-Nov-27 01:33N 38°20' E 117°52'  
Track history (hours):
 
Tides and Currents Weather Stations Pressure Air Temp Water Temp Dewpoint Dewpoint Depression Visibility Wind Speed Wind Dir Waves Ship Positions

An Run Da 2

Last reported at 2016-Dec-06 23:28 UTC. Time now 2016-Dec-08 14:28 UTC.
Position N 36°38' E 122°43'.

Length 147 m; draft 8.4 m.

MMSI: 413360230.

Date/timePositionNaut miles runAvg speedWind from/ knotsBaromVisibWave heightAir tempDewpointWater temp
2016-Dec-06 23:28N 36°38' E 122°43'910.0
2016-Dec-06 22:33N 36°47' E 122°45'1110.6
2016-Dec-06 21:33N 36°58' E 122°46'1111.1
2016-Dec-06 20:33N 37°09' E 122°46'2110.6
2016-Dec-06 18:33N 37°30' E 122°43'10 9.4
2016-Dec-06 17:30N 37°34' E 122°32'27 9.3
2016-Dec-06 14:33N 37°43' E 121°59'10 9.8
2016-Dec-06 13:33N 37°46' E 121°47'1010.0
2016-Dec-06 12:33N 37°49' E 121°35'1010.1
2016-Dec-06 11:33N 37°53' E 121°23'153 9.6
2016-Dec-05 19:34N 38°28' E 118°14'19 2.1
2016-Dec-05 10:30N 38°19' E 117°52'0 0.0
2016-Dec-05 06:25N 38°19' E 117°52'2 2.1
2016-Dec-05 05:31N 38°20' E 117°55'1110.1
2016-Dec-05 04:26N 38°25' E 118°07'1 0.7
2016-Dec-05 03:08N 38°25' E 118°08'0 0.0
2016-Dec-05 02:04N 38°25' E 118°08'0 0.1
2016-Dec-05 01:05N 38°25' E 118°08'0 0.0
2016-Dec-04 15:28N 38°24' E 118°08'8 8.4
2016-Dec-04 14:32N 38°26' E 118°18'14610.8
2016-Dec-04 01:04N 37°54' E 121°19'611.2
2016-Dec-04 00:33N 37°53' E 121°26'1211.5
2016-Dec-03 23:33N 37°50' E 121°41'1211.7
2016-Dec-03 22:33N 37°47' E 121°55'67 9.1
2016-Dec-03 15:13N 36°59' E 122°52'811.8
2016-Dec-03 14:33N 36°51' E 122°53'339 9.7
2016-Dec-02 03:31N 31°17' E 121°44'7 6.7
2016-Dec-02 02:29N 31°22' E 121°39'0 0.1
2016-Dec-02 01:32N 31°22' E 121°39'0 0.0
2016-Dec-02 00:31N 31°22' E 121°39'6 6.4
2016-Dec-01 23:33N 31°24' E 121°32'5 5.1
2016-Dec-01 22:33N 31°19' E 121°34'6 5.9
2016-Dec-01 21:33N 31°14' E 121°30'6 5.9
2016-Dec-01 20:33N 31°08' E 121°27'2 0.1
2016-Nov-30 22:29N 31°06' E 121°28'3 3.4
2016-Nov-30 21:32N 31°09' E 121°27'4 3.6
2016-Nov-30 20:32N 31°12' E 121°30'3 3.3
2016-Nov-30 19:34N 31°15' E 121°32'5 5.1
2016-Nov-30 18:33N 31°20' E 121°33'4 4.2
2016-Nov-30 17:32N 31°24' E 121°31'6 6.2
2016-Nov-30 16:33N 31°22' E 121°38'10 8.6
2016-Nov-30 15:24N 31°17' E 121°49'322 7.0
2016-Nov-28 17:29N 36°37' E 122°43'1010.5
2016-Nov-28 16:32N 36°46' E 122°45'1111.3
2016-Nov-28 15:33N 36°57' E 122°46'61 8.6
2016-Nov-28 08:33N 37°44' E 121°57'1010.3
2016-Nov-28 07:33N 37°47' E 121°45'1010.4
2016-Nov-28 06:33N 37°50' E 121°32'1010.4
2016-Nov-28 05:33N 37°53' E 121°19'158 9.3
2016-Nov-27 12:32N 38°24' E 118°02'9 2.1
2016-Nov-27 08:08N 38°20' E 117°52'0 0.0
2016-Nov-27 07:24N 38°20' E 117°52'0 0.0
2016-Nov-27 05:10N 38°20' E 117°52'0 0.0
2016-Nov-27 02:28N 38°20' E 117°52'0 0.0
2016-Nov-27 01:33N 38°20' E 117°52'  

Dump ship's entire track history